Time;durP1;ratioP1;P1;durP2;ratioP2;P2;SDS_P1;SDS_P2;PMS_P1;PMS_P2;Temp;Humidity;BMP_temperature;BMP_pressure;BME280_temperature;BME280_humidity;BME280_pressure;Samples;Min_cycle;Max_cycle;Signal;HPM_P1;HPM_P2
2022/03/16 04:00:20;;;;;;;55.75;28.85;;;3.50;99.90;;;;;;6295876;22;21385;-82
2022/03/16 04:02:47;;;;;;;66.28;29.63;;;3.40;99.90;;;;;;6312869;22;20014;-81
2022/03/16 04:05:13;;;;;;;79.45;36.90;;;3.40;99.90;;;;;;6312828;22;20059;-80
2022/03/16 04:07:38;;;;;;;71.32;34.53;;;3.40;99.90;;;;;;6312611;22;20431;-81
2022/03/16 04:10:05;;;;;;;81.65;36.22;;;3.40;99.90;;;;;;6340318;22;20014;-81
2022/03/16 04:12:30;;;;;;;68.07;33.10;;;3.40;99.90;;;;;;6312027;22;20011;-80
2022/03/16 04:14:56;;;;;;;59.05;30.17;;;3.40;99.90;;;;;;6312881;22;20015;-80
2022/03/16 04:17:21;;;;;;;61.13;31.55;;;3.40;99.90;;;;;;6313151;22;20432;-81
2022/03/16 04:19:47;;;;;;;55.40;30.52;;;3.40;99.90;;;;;;6313088;22;20436;-81
2022/03/16 04:22:13;;;;;;;63.35;31.23;;;3.40;99.90;;;;;;6340055;22;20017;-81
2022/03/16 04:24:38;;;;;;;59.40;31.20;;;3.40;99.90;;;;;;6312452;22;20124;-80
2022/03/16 04:27:04;;;;;;;66.82;31.90;;;3.30;99.90;;;;;;6312155;22;20094;-81
2022/03/16 04:29:30;;;;;;;82.03;35.78;;;3.30;99.90;;;;;;6312056;22;20419;-82
2022/03/16 04:31:55;;;;;;;70.35;33.08;;;3.30;99.90;;;;;;6312885;22;20050;-81
2022/03/16 04:34:21;;;;;;;66.60;32.70;;;3.30;99.90;;;;;;6312425;22;20017;-80
2022/03/16 04:36:47;;;;;;;69.57;32.63;;;3.20;99.90;;;;;;6312235;22;20011;-80
2022/03/16 04:39:12;;;;;;;57.40;30.77;;;3.20;99.90;;;;;;6312119;22;20011;-81
2022/03/16 04:41:38;;;;;;;68.57;31.73;;;3.10;99.90;;;;;;6312288;22;20337;-81
2022/03/16 04:44:03;;;;;;;44.92;25.35;;;3.10;99.90;;;;;;6312369;22;20011;-81
2022/03/16 04:46:29;;;;;;;57.30;26.80;;;3.10;99.90;;;;;;6312348;22;20015;-80
2022/03/16 04:48:55;;;;;;;50.58;25.38;;;3.00;99.90;;;;;;6312483;22;20022;-81
2022/03/16 04:51:20;;;;;;;42.58;24.70;;;2.90;99.90;;;;;;6312242;22;20093;-80
2022/03/16 04:53:46;;;;;;;44.88;24.88;;;2.80;99.90;;;;;;6312411;22;20011;-80
2022/03/16 04:56:12;;;;;;;47.28;25.48;;;2.80;99.90;;;;;;6312562;22;20010;-79
2022/03/16 04:58:38;;;;;;;51.90;29.50;;;2.80;99.90;;;;;;6340221;22;20003;-80
2022/03/16 05:01:04;;;;;;;48.60;27.65;;;2.80;99.90;;;;;;6312029;22;20053;-81
2022/03/16 05:03:29;;;;;;;67.88;31.85;;;2.80;99.90;;;;;;6339750;22;20011;-81
2022/03/16 05:05:55;;;;;;;68.28;32.92;;;2.80;99.90;;;;;;6311955;22;20010;-81
2022/03/16 05:08:20;;;;;;;75.15;36.15;;;2.80;99.90;;;;;;6312304;22;20459;-81
2022/03/16 05:10:46;;;;;;;70.70;35.40;;;2.90;99.90;;;;;;6312080;22;20347;-80
2022/03/16 05:13:12;;;;;;;72.57;36.72;;;3.00;99.90;;;;;;6286164;22;20036;-81
2022/03/16 05:15:37;;;;;;;76.70;37.88;;;3.00;99.90;;;;;;6312197;22;20068;-81
2022/03/16 05:18:03;;;;;;;81.30;38.42;;;3.00;99.90;;;;;;6311975;22;20006;-80
2022/03/16 05:20:29;;;;;;;80.30;39.47;;;3.10;99.90;;;;;;6311902;22;20329;-81
2022/03/16 05:22:55;;;;;;;91.50;43.85;;;3.10;99.90;;;;;;6311991;22;20018;-81
2022/03/16 05:25:31;;;;;;;97.15;45.70;;;3.20;99.90;;;;;;6340102;22;20068;-81
2022/03/16 05:27:57;;;;;;;88.38;42.95;;;3.30;99.90;;;;;;6311866;22;20011;-81
2022/03/16 05:30:26;;;;;;;91.95;44.25;;;3.30;99.90;;;;;;6312171;22;20056;-81
2022/03/16 05:32:53;;;;;;;90.25;42.67;;;3.30;99.90;;;;;;6312122;22;20014;-81
2022/03/16 05:35:19;;;;;;;84.25;40.08;;;3.30;99.90;;;;;;6311716;22;20011;-81
2022/03/16 05:37:45;;;;;;;79.85;41.25;;;3.30;99.90;;;;;;6285771;22;20013;-81
2022/03/16 05:40:11;;;;;;;90.88;41.83;;;3.40;99.90;;;;;;6311572;22;20094;-81
2022/03/16 05:42:38;;;;;;;91.30;41.53;;;3.40;99.90;;;;;;6311363;22;20388;-81
2022/03/16 05:45:05;;;;;;;87.95;42.05;;;3.40;99.90;;;;;;6339465;22;20436;-81
2022/03/16 05:47:32;;;;;;;90.32;41.83;;;3.40;99.90;;;;;;6311296;22;20086;-81
2022/03/16 05:49:58;;;;;;;82.40;40.25;;;3.40;99.90;;;;;;6286419;22;20021;-80
2022/03/16 05:52:25;;;;;;;97.95;41.92;;;3.40;99.90;;;;;;6311318;22;20011;-81
2022/03/16 05:54:55;;;;;;;94.88;42.53;;;3.40;99.90;;;;;;6312707;22;20054;-81
2022/03/16 05:57:21;;;;;;;91.43;42.30;;;3.40;99.90;;;;;;6313991;22;20030;-81
2022/03/16 05:59:48;;;;;;;92.68;42.97;;;3.40;99.90;;;;;;6313212;22;20113;-81
2022/03/16 06:02:14;;;;;;;78.85;40.42;;;3.40;99.90;;;;;;6313450;22;20019;-81
2022/03/16 06:04:41;;;;;;;78.57;39.05;;;3.40;99.90;;;;;;6313580;22;20493;-80
2022/03/16 06:07:07;;;;;;;83.10;41.03;;;3.40;99.90;;;;;;6313609;22;20393;-81
2022/03/16 06:09:33;;;;;;;89.38;41.40;;;3.40;99.90;;;;;;6287550;22;20018;-80
2022/03/16 06:12:00;;;;;;;78.43;39.47;;;3.40;99.90;;;;;;6287811;22;20149;-81
2022/03/16 06:14:26;;;;;;;79.43;39.78;;;3.40;99.90;;;;;;6313933;22;20015;-83
2022/03/16 06:16:52;;;;;;;82.45;39.50;;;3.40;99.90;;;;;;6341698;22;20007;-85
2022/03/16 06:19:18;;;;;;;75.60;38.92;;;3.40;99.90;;;;;;6313867;22;20018;-83
2022/03/16 06:21:44;;;;;;;83.13;40.38;;;3.40;99.90;;;;;;6287408;22;20042;-82
2022/03/16 06:24:11;;;;;;;77.88;39.78;;;3.40;99.90;;;;;;6341434;22;20011;-81
2022/03/16 06:26:37;;;;;;;83.47;41.78;;;3.40;99.90;;;;;;6313852;22;20393;-79
2022/03/16 06:29:03;;;;;;;84.07;41.42;;;3.40;99.90;;;;;;6313903;22;20306;-79
2022/03/16 06:31:28;;;;;;;82.32;39.90;;;3.40;99.90;;;;;;6313819;22;20056;-79
2022/03/16 06:33:54;;;;;;;85.15;41.58;;;3.50;99.90;;;;;;6313776;22;20313;-80
2022/03/16 06:36:20;;;;;;;84.53;42.25;;;3.50;99.90;;;;;;6313657;22;20387;-82
2022/03/16 06:38:45;;;;;;;81.50;41.42;;;3.50;99.90;;;;;;6313045;22;20015;-80
2022/03/16 06:41:11;;;;;;;81.75;41.35;;;3.50;99.90;;;;;;6340864;22;20331;-81
2022/03/16 06:43:36;;;;;;;86.40;43.38;;;3.60;99.90;;;;;;6312907;22;20019;-80
2022/03/16 06:46:02;;;;;;;81.55;41.65;;;3.60;99.90;;;;;;6313022;22;20021;-81
2022/03/16 06:48:28;;;;;;;88.55;44.00;;;3.70;99.90;;;;;;6313059;22;20011;-80
2022/03/16 06:50:54;;;;;;;85.55;43.55;;;3.70;99.90;;;;;;6312854;22;20011;-80
2022/03/16 06:53:20;;;;;;;80.47;43.17;;;3.80;99.90;;;;;;6313961;22;20443;-81
2022/03/16 06:55:48;;;;;;;81.32;42.47;;;3.80;99.90;;;;;;6320769;22;20022;-79
2022/03/16 06:58:14;;;;;;;85.72;43.15;;;3.90;99.90;;;;;;6325984;22;20025;-79
2022/03/16 07:00:40;;;;;;;80.68;43.80;;;3.90;99.90;;;;;;6310355;22;20055;-79
2022/03/16 07:03:06;;;;;;;98.25;46.30;;;3.90;99.90;;;;;;6319140;22;20010;-79
2022/03/16 07:05:41;;;;;;;90.13;45.85;;;4.00;99.90;;;;;;6315643;22;20042;-80
2022/03/16 07:08:09;;;;;;;100.38;48.47;;;4.10;99.90;;;;;;6314570;22;20011;-81
2022/03/16 07:10:37;;;;;;;96.90;50.57;;;4.20;99.90;;;;;;6287210;22;20011;-81
2022/03/16 07:13:03;;;;;;;95.70;50.50;;;4.20;99.90;;;;;;6312818;22;20059;-80
2022/03/16 07:15:32;;;;;;;102.78;51.45;;;4.30;99.90;;;;;;6312734;22;20042;-79
2022/03/16 07:17:59;;;;;;;103.40;53.22;;;4.40;99.90;;;;;;6312826;22;20007;-81
2022/03/16 07:20:24;;;;;;;104.97;53.15;;;4.50;99.90;;;;;;6312632;22;20042;-82
2022/03/16 07:23:10;;;;;;;107.53;54.22;;;4.60;99.90;;;;;;6312908;22;20060;-81
2022/03/16 07:25:38;;;;;;;105.07;54.58;;;4.70;99.90;;;;;;6312642;22;20349;-79
2022/03/16 07:28:04;;;;;;;103.10;53.97;;;4.80;99.90;;;;;;6313308;22;20011;-81
2022/03/16 07:30:29;;;;;;;103.05;52.50;;;4.90;99.90;;;;;;6287006;22;20014;-79
2022/03/16 07:32:55;;;;;;;103.38;52.70;;;5.00;99.90;;;;;;6312859;22;20019;-82
2022/03/16 07:35:26;;;;;;;98.53;52.97;;;5.00;99.90;;;;;;6313008;22;20007;-81
2022/03/16 07:37:54;;;;;;;100.72;52.40;;;5.10;99.90;;;;;;6313072;22;20092;-81
2022/03/16 07:40:19;;;;;;;99.88;51.70;;;5.20;99.90;;;;;;6313089;22;20312;-80
2022/03/16 07:42:47;;;;;;;98.35;51.85;;;5.20;99.90;;;;;;6312569;22;20021;-81
2022/03/16 07:45:15;;;;;;;92.78;50.72;;;5.30;99.90;;;;;;6313026;22;20056;-81
2022/03/16 07:47:41;;;;;;;97.25;52.38;;;5.40;99.90;;;;;;6313061;22;20056;-82
2022/03/16 07:50:08;;;;;;;94.88;49.95;;;5.50;99.90;;;;;;6312709;22;20048;-81
2022/03/16 07:52:34;;;;;;;87.47;47.92;;;5.60;99.90;;;;;;6312738;22;20090;-82
2022/03/16 07:54:59;;;;;;;86.30;47.15;;;5.70;99.90;;;;;;6312677;22;20011;-82
2022/03/16 07:57:25;;;;;;;79.75;45.38;;;5.70;99.90;;;;;;6313117;22;20042;-81
2022/03/16 07:59:51;;;;;;;80.65;42.95;;;5.80;99.90;;;;;;6312582;22;20470;-81
2022/03/16 08:02:17;;;;;;;72.45;40.45;;;5.90;99.90;;;;;;6340251;22;20079;-81
2022/03/16 08:04:43;;;;;;;65.28;36.25;;;6.00;99.90;;;;;;6312230;22;20022;-76
2022/03/16 08:07:12;;;;;;;65.30;38.65;;;6.10;99.90;;;;;;6340441;22;20359;-81
2022/03/16 08:09:37;;;;;;;64.30;37.35;;;6.20;99.90;;;;;;6312734;22;20016;-81
2022/03/16 08:12:04;;;;;;;59.78;35.40;;;6.40;99.90;;;;;;6340244;22;20056;-82
2022/03/16 08:14:29;;;;;;;62.08;37.35;;;6.50;99.90;;;;;;6286783;22;20389;-81
2022/03/16 08:16:55;;;;;;;56.65;34.15;;;6.60;99.90;;;;;;6312096;22;20015;-79
2022/03/16 08:19:21;;;;;;;56.65;34.25;;;6.70;99.90;;;;;;6286261;22;20007;-82
2022/03/16 08:21:47;;;;;;;50.53;30.27;;;6.90;99.90;;;;;;6286559;22;20025;-82
2022/03/16 08:24:14;;;;;;;54.22;30.23;;;7.00;99.90;;;;;;6339994;22;20436;-80
2022/03/16 08:26:40;;;;;;;46.08;27.52;;;7.10;99.90;;;;;;6340352;22;20014;-81
2022/03/16 08:29:05;;;;;;;44.13;26.73;;;7.30;99.90;;;;;;6287070;22;20075;-78
2022/03/16 08:31:31;;;;;;;43.85;26.77;;;7.40;99.90;;;;;;6312197;22;20022;-83
2022/03/16 08:33:56;;;;;;;41.63;25.20;;;7.40;99.90;;;;;;6312613;22;20007;-82
2022/03/16 08:36:22;;;;;;;43.67;24.52;;;7.50;99.90;;;;;;6312663;22;20096;-81
2022/03/16 08:38:48;;;;;;;41.42;23.55;;;7.60;99.90;;;;;;6312715;22;20383;-81
2022/03/16 08:41:13;;;;;;;41.10;24.45;;;7.70;99.90;;;;;;6341172;22;20007;-80
2022/03/16 08:43:39;;;;;;;41.83;23.77;;;7.90;99.90;;;;;;6340916;22;20013;-80
2022/03/16 08:46:05;;;;;;;35.17;21.40;;;8.10;99.90;;;;;;6340539;22;20015;-81
2022/03/16 08:48:31;;;;;;;38.03;21.60;;;8.20;99.90;;;;;;6340845;22;20010;-81
2022/03/16 08:50:58;;;;;;;35.67;20.38;;;8.30;99.90;;;;;;6313302;22;20021;-80
2022/03/16 08:53:25;;;;;;;35.88;20.58;;;8.40;99.90;;;;;;6312542;22;20014;-80
2022/03/16 08:55:50;;;;;;;32.45;19.90;;;8.50;99.90;;;;;;6340151;22;20448;-81
2022/03/16 08:58:16;;;;;;;28.60;17.73;;;8.60;99.90;;;;;;6313133;22;20061;-82
2022/03/16 09:00:42;;;;;;;30.38;18.08;;;8.80;99.90;;;;;;6312826;22;20018;-83
2022/03/16 09:03:08;;;;;;;30.10;17.92;;;9.00;99.90;;;;;;6312932;22;20058;-82
2022/03/16 09:05:34;;;;;;;27.02;17.02;;;9.30;99.90;;;;;;6312597;22;20064;-80
2022/03/16 09:08:00;;;;;;;26.30;15.20;;;9.50;99.90;;;;;;6312636;22;20014;-82
2022/03/16 09:10:26;;;;;;;31.02;18.58;;;9.60;99.90;;;;;;6340725;22;20037;-82
2022/03/16 09:12:52;;;;;;;27.17;16.38;;;9.70;99.90;;;;;;6286570;22;20015;-81
2022/03/16 09:15:17;;;;;;;26.77;16.33;;;9.90;99.90;;;;;;6312676;22;20085;-82
2022/03/16 09:17:43;;;;;;;26.85;15.48;;;10.20;99.90;;;;;;6312061;22;20049;-81
2022/03/16 09:20:09;;;;;;;27.63;15.18;;;10.20;99.90;;;;;;6340195;22;20017;-82
2022/03/16 09:22:35;;;;;;;24.30;15.15;;;10.40;99.90;;;;;;6287382;22;20114;-80
2022/03/16 09:25:01;;;;;;;27.13;15.32;;;10.50;99.90;;;;;;6340294;22;20007;-82
2022/03/16 09:27:27;;;;;;;24.77;14.77;;;10.70;99.90;;;;;;6311961;22;20049;-80
2022/03/16 09:29:55;;;;;;;24.92;14.85;;;11.00;99.90;;;;;;6340208;22;20007;-79
2022/03/16 09:32:21;;;;;;;24.45;14.32;;;11.10;99.90;;;;;;6311835;22;20046;-81
2022/03/16 09:34:50;;;;;;;23.42;13.70;;;11.20;99.90;;;;;;6312698;22;20014;-83
2022/03/16 09:37:16;;;;;;;25.70;14.45;;;11.40;99.90;;;;;;6339937;22;20038;-80
2022/03/16 09:39:42;;;;;;;23.90;13.32;;;11.60;99.90;;;;;;6286209;22;20011;-80
2022/03/16 09:42:09;;;;;;;21.83;13.70;;;11.70;99.90;;;;;;6310742;22;20021;-82
2022/03/16 09:44:36;;;;;;;23.77;13.85;;;11.90;99.90;;;;;;6311859;22;20014;-81
2022/03/16 09:47:03;;;;;;;21.92;13.10;;;12.00;99.90;;;;;;6312508;22;20061;-82
2022/03/16 09:49:29;;;;;;;20.48;13.55;;;12.10;99.90;;;;;;6339801;22;20081;-80
2022/03/16 09:51:56;;;;;;;22.98;13.13;;;12.00;99.90;;;;;;6311458;22;20455;-82
2022/03/16 09:54:22;;;;;;;21.42;12.85;;;12.10;99.90;;;;;;6340080;22;20128;-82
2022/03/16 09:56:48;;;;;;;21.42;12.98;;;12.20;99.90;;;;;;6311758;22;20052;-81
2022/03/16 09:59:15;;;;;;;19.77;12.43;;;12.20;99.90;;;;;;6312095;22;20011;-80
2022/03/16 10:01:44;;;;;;;21.98;11.98;;;12.40;99.90;;;;;;6339539;22;20014;-82
2022/03/16 10:04:10;;;;;;;22.65;13.45;;;12.50;99.90;;;;;;6311832;22;20019;-82
2022/03/16 10:06:37;;;;;;;19.20;11.98;;;12.50;99.90;;;;;;6311630;22;20014;-81
2022/03/16 10:15:13;;;;;;;24.13;12.20;;;12.60;99.90;;;;;;6311855;22;20050;-80
2022/03/16 10:17:43;;;;;;;20.02;11.95;;;12.70;99.90;;;;;;6311568;22;20332;-80
2022/03/16 10:20:19;;;;;;;23.30;12.80;;;12.70;99.90;;;;;;6311367;22;20036;-79
2022/03/16 10:22:53;;;;;;;18.35;11.85;;;12.90;99.90;;;;;;6311627;22;20351;-82
2022/03/16 10:25:18;;;;;;;20.67;11.10;;;13.00;99.90;;;;;;6311514;22;20014;-80
2022/03/16 10:27:44;;;;;;;18.27;12.00;;;13.00;99.90;;;;;;6310772;22;20019;-82
2022/03/16 10:30:10;;;;;;;22.38;12.85;;;13.00;99.90;;;;;;6311320;22;20022;-80
2022/03/16 10:32:36;;;;;;;19.95;11.52;;;13.10;99.90;;;;;;6311317;22;20060;-82
2022/03/16 10:35:05;;;;;;;17.85;10.88;;;13.20;99.90;;;;;;6311721;22;20049;-82
2022/03/16 10:37:34;;;;;;;20.52;11.85;;;13.30;99.90;;;;;;6311037;22;20015;-81
2022/03/16 10:40:03;;;;;;;16.02;10.50;;;13.40;99.90;;;;;;6338953;22;20337;-80
2022/03/16 10:48:14;;;;;;;15.95;9.75;;;13.30;99.90;;;;;;6312688;22;20392;-82
2022/03/16 10:50:42;;;;;;;14.50;9.63;;;13.30;99.90;;;;;;6312717;22;20042;-81
2022/03/16 10:53:09;;;;;;;16.17;9.95;;;13.40;99.90;;;;;;6312868;22;20013;-81
2022/03/16 10:55:40;;;;;;;15.57;10.02;;;13.60;99.90;;;;;;6312819;22;20053;-81
2022/03/16 10:58:07;;;;;;;14.65;9.60;;;13.60;99.90;;;;;;6340904;22;20334;-79
2022/03/16 11:00:34;;;;;;;17.02;10.13;;;13.70;99.90;;;;;;6340540;22;20014;-78
2022/03/16 11:03:04;;;;;;;17.15;9.38;;;13.70;99.90;;;;;;6313010;22;20068;-80
2022/03/16 11:05:30;;;;;;;14.27;9.20;;;13.90;99.90;;;;;;6341076;22;20498;-80
2022/03/16 11:07:57;;;;;;;14.80;9.18;;;13.90;99.90;;;;;;6343732;22;20010;-80
2022/03/16 11:10:24;;;;;;;17.27;9.27;;;13.90;99.90;;;;;;6316217;22;20036;-82
2022/03/16 11:15:35;;;;;;;15.03;8.00;;;14.10;99.90;;;;;;6354375;22;20015;-80
2022/03/16 11:18:01;;;;;;;14.85;9.38;;;14.10;99.90;;;;;;6332356;22;20007;-81
2022/03/16 11:20:32;;;;;;;18.77;10.75;;;14.20;99.90;;;;;;6319897;22;20011;-81
2022/03/16 11:26:03;;;;;;;14.75;9.55;;;14.40;99.90;;;;;;6314166;22;20015;-81
2022/03/16 11:28:55;;;;;;;16.33;9.88;;;14.50;99.90;;;;;;6341480;22;20181;-83
2022/03/16 11:31:28;;;;;;;14.75;9.63;;;14.70;99.90;;;;;;6312435;22;20018;-81
2022/03/16 11:33:55;;;;;;;17.08;9.70;;;14.80;99.90;;;;;;6312775;22;20011;-81
2022/03/16 11:36:38;;;;;;;15.43;9.45;;;14.80;99.90;;;;;;6341286;22;20007;-81
2022/03/16 11:39:20;;;;;;;16.20;9.25;;;14.90;99.90;;;;;;6312469;22;20010;-80
2022/03/16 11:41:54;;;;;;;15.68;10.00;;;15.00;99.90;;;;;;6312763;22;20019;-81
2022/03/16 11:44:25;;;;;;;15.65;9.50;;;15.00;99.90;;;;;;6287131;22;20015;-81
2022/03/16 11:46:55;;;;;;;14.35;9.20;;;15.10;99.90;;;;;;6313016;22;20034;-81
2022/03/16 11:49:29;;;;;;;16.33;9.10;;;15.10;99.90;;;;;;6312665;22;20010;-80
2022/03/16 11:52:04;;;;;;;14.52;9.30;;;15.10;99.90;;;;;;6312307;22;20019;-79
2022/03/16 11:54:40;;;;;;;18.48;9.27;;;15.20;99.90;;;;;;6312802;22;20074;-80
2022/03/16 11:57:06;;;;;;;16.13;9.50;;;15.40;99.90;;;;;;6313558;22;20492;-81
2022/03/16 11:59:33;;;;;;;13.60;8.95;;;15.50;99.90;;;;;;6312356;22;20093;-81
2022/03/16 12:02:06;;;;;;;12.50;8.60;;;15.60;99.90;;;;;;6288240;22;20011;-82
2022/03/16 12:04:43;;;;;;;15.27;9.25;;;15.60;99.90;;;;;;6341920;22;20388;-82
2022/03/16 12:07:21;;;;;;;16.08;8.57;;;15.70;99.90;;;;;;6341564;22;20010;-82
2022/03/16 12:09:56;;;;;;;13.75;8.77;;;15.80;99.90;;;;;;6341258;22;20011;-81
2022/03/16 12:15:27;;;;;;;17.13;9.05;;;15.80;99.90;;;;;;6313314;22;20023;-77
2022/03/16 12:17:54;;;;;;;14.32;9.00;;;15.90;99.90;;;;;;6314915;22;20014;-84
2022/03/16 12:20:34;;;;;;;14.23;8.48;;;16.00;99.60;;;;;;6291054;22;20305;-84
2022/03/16 12:23:03;;;;;;;12.55;8.52;;;16.00;98.90;;;;;;6343064;22;20030;-83
2022/03/16 12:25:30;;;;;;;14.73;9.63;;;16.20;99.10;;;;;;6343943;22;20068;-83
2022/03/16 12:30:48;;;;;;;16.67;9.40;;;16.30;97.20;;;;;;6314091;22;20018;-84
2022/03/16 12:33:19;;;;;;;13.15;8.70;;;16.20;96.40;;;;;;6288486;22;20025;-82
2022/03/16 12:35:46;;;;;;;15.07;9.30;;;16.30;96.80;;;;;;6287278;22;20014;-84
2022/03/16 12:38:11;;;;;;;14.25;9.25;;;16.40;95.80;;;;;;6313102;22;20006;-85
2022/03/16 12:42:31;;;;;;;12.77;9.10;;;16.50;95.20;;;;;;6313141;22;20007;-85
2022/03/16 12:43:28;;;;;;;13.40;8.52;;;16.50;94.50;;;;;;6340243;22;20318;-82
2022/03/16 12:46:12;;;;;;;14.25;8.80;;;16.70;94.70;;;;;;6285632;22;20029;-81
2022/03/16 12:48:40;;;;;;;14.75;9.93;;;16.80;94.20;;;;;;6311048;22;20093;-82
2022/03/16 12:51:06;;;;;;;13.93;8.68;;;16.90;93.50;;;;;;6310640;22;20019;-82
2022/03/16 12:53:44;;;;;;;15.60;9.23;;;17.00;92.50;;;;;;6311128;22;20018;-81
2022/03/16 12:56:19;;;;;;;17.15;8.95;;;16.90;91.30;;;;;;6311841;22;20440;-84
2022/03/16 12:58:55;;;;;;;14.02;9.35;;;16.80;91.00;;;;;;6340442;22;20056;-81
2022/03/16 13:01:22;;;;;;;15.88;9.63;;;17.10;91.60;;;;;;6311091;22;20018;-81
2022/03/16 13:04:01;;;;;;;15.40;10.02;;;17.40;90.40;;;;;;6311374;22;20042;-80
2022/03/16 13:06:33;;;;;;;15.73;9.90;;;17.60;90.10;;;;;;6311563;22;20340;-81
2022/03/16 13:09:02;;;;;;;16.67;9.80;;;17.70;90.00;;;;;;6312344;22;20015;-80
2022/03/16 13:11:30;;;;;;;15.77;9.80;;;17.80;87.90;;;;;;6311893;22;20098;-82
2022/03/16 13:14:13;;;;;;;14.40;9.27;;;17.40;87.80;;;;;;6340354;22;20010;-82
2022/03/16 13:16:46;;;;;;;14.10;9.13;;;16.90;88.10;;;;;;6341210;22;20006;-82
2022/03/16 13:19:24;;;;;;;16.15;10.23;;;16.60;89.90;;;;;;6311728;22;20045;-81
2022/03/16 13:22:05;;;;;;;14.27;9.52;;;16.50;90.30;;;;;;6311656;22;20077;-80
2022/03/16 13:24:39;;;;;;;15.75;9.40;;;16.50;90.90;;;;;;6312341;22;20094;-82
2022/03/16 13:27:07;;;;;;;14.57;9.90;;;16.50;90.90;;;;;;6312264;22;20025;-82
2022/03/16 13:29:49;;;;;;;16.42;9.90;;;16.70;91.00;;;;;;6339919;22;20056;-82
2022/03/16 13:32:15;;;;;;;19.10;10.23;;;16.50;90.90;;;;;;6338760;22;20108;-81
2022/03/16 13:34:41;;;;;;;14.80;10.23;;;16.40;91.60;;;;;;6310777;22;20336;-81
2022/03/16 13:37:27;;;;;;;14.05;9.05;;;16.10;92.00;;;;;;6311428;22;20007;-81
2022/03/16 13:39:57;;;;;;;14.98;9.80;;;15.90;90.50;;;;;;6286383;22;20429;-80
2022/03/16 13:42:34;;;;;;;14.88;9.40;;;15.90;91.40;;;;;;6311864;22;20383;-82
2022/03/16 13:45:26;;;;;;;15.10;9.25;;;16.10;92.20;;;;;;6311929;22;20010;-82
2022/03/16 13:48:18;;;;;;;14.82;10.35;;;16.20;90.70;;;;;;6286565;22;20038;-83
2022/03/16 13:51:02;;;;;;;15.32;10.05;;;16.10;89.50;;;;;;6312630;22;20025;-82
2022/03/16 13:53:32;;;;;;;14.77;9.52;;;16.00;90.60;;;;;;6312505;22;20089;-82
2022/03/16 13:56:13;;;;;;;16.90;10.45;;;16.00;91.10;;;;;;6312758;22;20019;-82
2022/03/16 13:58:43;;;;;;;15.95;10.40;;;15.90;91.40;;;;;;6287802;22;20064;-83
2022/03/16 14:01:18;;;;;;;16.40;10.57;;;15.90;92.00;;;;;;6312952;22;20132;-82
2022/03/16 14:03:44;;;;;;;16.42;10.10;;;15.80;92.30;;;;;;6312907;22;20389;-82
2022/03/16 14:06:14;;;;;;;16.98;10.27;;;15.60;92.60;;;;;;6312764;22;20062;-82
2022/03/16 14:08:41;;;;;;;17.25;10.98;;;15.50;92.90;;;;;;6312002;22;20046;-81
2022/03/16 14:11:07;;;;;;;18.35;11.30;;;15.40;94.00;;;;;;6339450;22;20018;-82
2022/03/16 14:13:42;;;;;;;16.65;10.52;;;15.30;94.30;;;;;;6313035;22;20007;-82
2022/03/16 14:16:14;;;;;;;;;;;15.20;95.20;;;;;;6287216;22;20010;-82
2022/03/16 14:18:41;;;;;;;16.25;10.13;;;15.20;97.00;;;;;;6341664;22;19914;-83
2022/03/16 14:21:08;;;;;;;20.92;11.65;;;15.20;97.10;;;;;;6313602;22;20019;-80
2022/03/16 14:23:37;;;;;;;16.92;11.02;;;15.10;97.40;;;;;;6313462;22;20010;-83
2022/03/16 14:26:04;;;;;;;17.38;11.20;;;15.00;98.00;;;;;;6314206;22;20042;-82
2022/03/16 14:28:30;;;;;;;17.10;11.27;;;15.00;98.60;;;;;;6314002;22;20014;-83
2022/03/16 14:30:56;;;;;;;18.38;11.50;;;14.90;99.00;;;;;;6287708;22;20140;-82
2022/03/16 14:33:29;;;;;;;20.67;12.10;;;14.80;99.40;;;;;;6342233;22;20006;-83
2022/03/16 14:35:57;;;;;;;22.02;11.40;;;14.70;99.90;;;;;;6288609;22;20314;-81
2022/03/16 14:38:24;;;;;;;19.40;12.32;;;14.70;99.90;;;;;;6313544;22;20015;-82
2022/03/16 14:40:58;;;;;;;21.20;11.80;;;14.60;99.90;;;;;;6341476;22;20007;-82
2022/03/16 14:43:26;;;;;;;18.98;11.77;;;14.60;99.90;;;;;;6314083;22;20010;-82
2022/03/16 14:45:52;;;;;;;24.95;12.27;;;14.60;99.90;;;;;;6313898;22;20006;-82
2022/03/16 14:48:18;;;;;;;18.40;11.73;;;14.50;99.90;;;;;;6313374;22;20011;-82
2022/03/16 14:50:44;;;;;;;20.38;12.05;;;14.50;99.90;;;;;;6287305;22;20014;-80
2022/03/16 14:53:10;;;;;;;18.98;12.05;;;14.50;99.90;;;;;;6312562;22;20010;-83
2022/03/16 14:55:36;;;;;;;19.63;12.10;;;14.50;99.90;;;;;;6313102;22;20065;-83
2022/03/16 14:58:04;;;;;;;17.67;11.40;;;14.40;99.90;;;;;;6313728;22;20064;-83
2022/03/16 15:00:30;;;;;;;24.10;12.90;;;14.40;99.90;;;;;;6313676;22;20365;-83
2022/03/16 15:02:56;;;;;;;21.33;12.82;;;14.40;99.90;;;;;;6312801;22;20342;-81
2022/03/16 15:05:22;;;;;;;19.88;12.95;;;14.40;99.90;;;;;;6341476;22;20011;-83
2022/03/16 15:07:48;;;;;;;23.85;13.23;;;14.40;99.90;;;;;;6341466;22;20003;-82
2022/03/16 15:10:16;;;;;;;23.63;12.52;;;14.40;99.90;;;;;;6313855;22;20348;-83
2022/03/16 15:12:43;;;;;;;20.25;12.52;;;14.40;99.90;;;;;;6341308;22;20011;-82
2022/03/16 15:15:09;;;;;;;19.40;12.25;;;14.40;99.90;;;;;;6341181;22;20029;-82
2022/03/16 15:17:36;;;;;;;21.45;12.35;;;14.30;99.90;;;;;;6340995;22;20007;-82
2022/03/16 15:20:03;;;;;;;20.15;12.57;;;14.40;99.90;;;;;;6313601;22;20011;-82
2022/03/16 15:22:29;;;;;;;21.13;12.27;;;14.30;99.90;;;;;;6313641;22;20403;-82
2022/03/16 15:24:55;;;;;;;20.63;13.10;;;14.30;99.90;;;;;;6313419;22;20432;-83
2022/03/16 15:27:21;;;;;;;20.50;12.85;;;14.30;99.90;;;;;;6341225;22;20018;-82
2022/03/16 15:29:47;;;;;;;21.77;12.77;;;14.20;99.90;;;;;;6341240;22;20090;-82
2022/03/16 15:32:13;;;;;;;23.42;13.57;;;14.20;99.90;;;;;;6340779;22;20062;-83
2022/03/16 15:34:43;;;;;;;20.00;12.57;;;14.20;99.90;;;;;;6341309;22;20010;-82
2022/03/16 15:37:09;;;;;;;20.17;13.05;;;14.20;99.90;;;;;;6287147;22;20329;-83
2022/03/16 15:39:38;;;;;;;21.15;13.23;;;14.10;99.90;;;;;;6340692;22;20006;-81
2022/03/16 15:44:50;;;;;;;20.77;13.45;;;14.20;99.90;;;;;;6313309;22;20079;-83
2022/03/16 15:47:17;;;;;;;21.58;13.52;;;14.10;99.90;;;;;;6312799;22;20292;-82
2022/03/16 15:49:44;;;;;;;22.98;13.48;;;14.10;99.90;;;;;;6313049;22;20440;-81
2022/03/16 15:52:10;;;;;;;22.13;12.82;;;14.00;99.90;;;;;;6313572;22;20021;-83
2022/03/16 15:54:37;;;;;;;23.10;13.10;;;14.00;99.90;;;;;;6287405;22;20078;-83
2022/03/16 15:57:04;;;;;;;23.00;13.07;;;14.00;99.90;;;;;;6342563;22;20340;-83
2022/03/16 15:59:33;;;;;;;20.23;12.82;;;13.90;99.90;;;;;;6313375;22;20456;-82
2022/03/16 16:01:59;;;;;;;24.35;14.23;;;13.90;99.90;;;;;;6341352;22;20018;-83
2022/03/16 16:04:25;;;;;;;23.73;13.00;;;13.90;99.90;;;;;;6314265;22;20036;-83
2022/03/16 16:06:50;;;;;;;22.27;13.13;;;13.80;99.90;;;;;;6313918;22;20085;-82
2022/03/16 16:09:20;;;;;;;24.55;14.20;;;13.80;99.90;;;;;;6316224;22;20380;-82
2022/03/16 16:11:47;;;;;;;22.42;13.73;;;13.80;99.90;;;;;;6347035;22;20021;-82
2022/03/16 16:14:13;;;;;;;23.95;14.60;;;13.70;99.90;;;;;;6326476;22;20010;-82
2022/03/16 16:16:43;;;;;;;22.38;13.18;;;13.70;99.90;;;;;;6337748;22;20018;-81
2022/03/16 16:19:09;;;;;;;21.77;14.10;;;13.70;99.90;;;;;;6325468;22;20018;-84
2022/03/16 16:21:34;;;;;;;25.20;14.00;;;13.60;99.90;;;;;;6317780;22;20051;-81
2022/03/16 16:24:01;;;;;;;25.80;14.10;;;13.60;99.90;;;;;;6290997;22;20106;-82
2022/03/16 16:26:28;;;;;;;26.17;15.27;;;13.50;99.90;;;;;;6342257;22;20007;-81
2022/03/16 16:28:53;;;;;;;26.55;14.35;;;13.50;99.90;;;;;;6341434;22;20041;-83
2022/03/16 16:31:19;;;;;;;23.98;14.77;;;13.50;99.90;;;;;;6313114;22;20015;-83
2022/03/16 16:33:45;;;;;;;26.23;14.95;;;13.50;99.90;;;;;;6340885;22;20060;-81
2022/03/16 16:36:13;;;;;;;24.33;14.20;;;13.50;99.90;;;;;;6286409;22;20007;-81
2022/03/16 16:38:42;;;;;;;23.80;14.18;;;13.40;99.90;;;;;;6312415;22;20038;-82
2022/03/16 16:41:08;;;;;;;25.77;14.77;;;13.50;99.90;;;;;;6340879;22;20011;-82
2022/03/16 16:43:34;;;;;;;26.10;15.95;;;13.40;99.90;;;;;;6340995;22;20022;-83
2022/03/16 16:46:00;;;;;;;26.25;15.05;;;13.30;99.90;;;;;;6340988;22;20331;-83
2022/03/16 16:48:28;;;;;;;28.75;16.00;;;13.30;99.90;;;;;;6313165;22;20085;-82
2022/03/16 16:50:57;;;;;;;24.95;14.15;;;13.30;99.90;;;;;;6312579;22;20026;-83
2022/03/16 16:53:25;;;;;;;31.75;15.73;;;13.30;99.90;;;;;;6313493;22;20379;-83
2022/03/16 16:55:52;;;;;;;29.70;16.08;;;13.20;99.90;;;;;;6312450;22;20036;-82
2022/03/16 16:58:19;;;;;;;26.38;15.77;;;13.20;99.90;;;;;;6312798;22;20049;-82
2022/03/16 17:00:45;;;;;;;25.00;15.73;;;13.10;99.90;;;;;;6340091;22;20100;-82
2022/03/16 17:03:10;;;;;;;26.45;15.68;;;13.10;99.90;;;;;;6311563;22;20011;-82